Sao Gotardo, Brazil
Current Conditions -  °F | °C
As of 7:00 AM on Sunday 25 Jan 2015 (Local Time) from SBUR Reporting Station
Clear Clear  
Wind Chill: 70°   Ceiling: Unl
Heat Index: 70°   Visibility: 6mi
Dew Point: 63°   Wind: 8mph
Humidity: 78%   Direction: 20°NNE
Pressure: 30.03"   Gusts: NA
Location:  19.31°S, 46.05°W
Report Text: SBUR 250900Z 02007KT CAVOK 21/17 Q1017
Loading
Personal Weather Stations






























Interactive Weather Map New forecast layout! Learn more

10-Day Weather Forecast

Advertisements
Track Severe Weather on mobile